sensor_id;sensor_type;location;lat;lon;timestamp;pressure;altitude;pressure_sealevel;temperature;humidity
61761;BME280;47664;51.660;-0.100;2022-11-14T00:02:06;100666.10;;;11.06;61.25
61761;BME280;47664;51.660;-0.100;2022-11-14T00:04:38;100660.00;;;11.18;60.66
61761;BME280;47664;51.660;-0.100;2022-11-14T00:07:10;100654.85;;;10.74;62.07
61761;BME280;47664;51.660;-0.100;2022-11-14T00:09:42;100650.96;;;10.85;62.07
61761;BME280;47664;51.660;-0.100;2022-11-14T00:12:14;100651.33;;;10.56;62.42
61761;BME280;47664;51.660;-0.100;2022-11-14T00:14:46;100646.59;;;10.93;62.06
61761;BME280;47664;51.660;-0.100;2022-11-14T00:17:19;100641.72;;;11.16;61.53
61761;BME280;47664;51.660;-0.100;2022-11-14T00:19:51;100636.17;;;10.92;62.03
61761;BME280;47664;51.660;-0.100;2022-11-14T00:22:23;100635.94;;;10.87;62.21
61761;BME280;47664;51.660;-0.100;2022-11-14T00:24:55;100637.92;;;10.34;63.11
61761;BME280;47664;51.660;-0.100;2022-11-14T00:27:27;100628.24;;;10.50;63.20
61761;BME280;47664;51.660;-0.100;2022-11-14T00:29:59;100621.08;;;10.53;62.87
61761;BME280;47664;51.660;-0.100;2022-11-14T00:32:31;100620.86;;;10.67;62.98
61761;BME280;47664;51.660;-0.100;2022-11-14T00:35:04;100621.01;;;10.42;63.45
61761;BME280;47664;51.660;-0.100;2022-11-14T00:37:36;100620.86;;;9.81;65.11
61761;BME280;47664;51.660;-0.100;2022-11-14T00:40:09;100615.11;;;10.59;63.42
61761;BME280;47664;51.660;-0.100;2022-11-14T00:42:41;100614.99;;;10.64;62.86
61761;BME280;47664;51.660;-0.100;2022-11-14T00:45:14;100617.32;;;11.06;61.80
61761;BME280;47664;51.660;-0.100;2022-11-14T00:47:46;100620.29;;;10.90;62.18
61761;BME280;47664;51.660;-0.100;2022-11-14T00:50:19;100619.81;;;10.65;62.12
61761;BME280;47664;51.660;-0.100;2022-11-14T00:52:51;100614.02;;;10.81;62.81
61761;BME280;47664;51.660;-0.100;2022-11-14T00:55:23;100606.84;;;10.97;61.97
61761;BME280;47664;51.660;-0.100;2022-11-14T00:57:56;100600.05;;;10.87;63.49
61761;BME280;47664;51.660;-0.100;2022-11-14T01:00:28;100601.85;;;10.78;64.55
61761;BME280;47664;51.660;-0.100;2022-11-14T01:03:00;100604.91;;;10.75;64.09
61761;BME280;47664;51.660;-0.100;2022-11-14T01:05:32;100598.91;;;10.92;63.92
61761;BME280;47664;51.660;-0.100;2022-11-14T01:08:04;100595.60;;;11.12;63.24
61761;BME280;47664;51.660;-0.100;2022-11-14T01:10:37;100591.58;;;11.10;64.12
61761;BME280;47664;51.660;-0.100;2022-11-14T01:13:10;100589.75;;;11.08;64.48
61761;BME280;47664;51.660;-0.100;2022-11-14T01:15:44;100592.85;;;10.74;65.08
61761;BME280;47664;51.660;-0.100;2022-11-14T01:18:15;100588.81;;;10.41;66.18
61761;BME280;47664;51.660;-0.100;2022-11-14T01:20:48;100586.80;;;10.65;66.18
61761;BME280;47664;51.660;-0.100;2022-11-14T01:23:21;100579.49;;;10.48;67.02
61761;BME280;47664;51.660;-0.100;2022-11-14T01:25:53;100572.76;;;10.53;66.77
61761;BME280;47664;51.660;-0.100;2022-11-14T01:28:25;100571.78;;;10.22;68.38
61761;BME280;47664;51.660;-0.100;2022-11-14T01:31:05;100574.80;;;10.21;67.90
61761;BME280;47664;51.660;-0.100;2022-11-14T01:33:38;100568.21;;;10.76;66.95
61761;BME280;47664;51.660;-0.100;2022-11-14T01:36:10;100561.93;;;10.56;66.12
61761;BME280;47664;51.660;-0.100;2022-11-14T01:38:43;100556.96;;;10.90;65.64
61761;BME280;47664;51.660;-0.100;2022-11-14T01:41:16;100552.29;;;10.47;64.80
61761;BME280;47664;51.660;-0.100;2022-11-14T01:43:49;100551.67;;;10.61;62.57
61761;BME280;47664;51.660;-0.100;2022-11-14T01:46:25;100549.43;;;10.66;61.36
61761;BME280;47664;51.660;-0.100;2022-11-14T01:49:02;100553.48;;;10.52;61.50
61761;BME280;47664;51.660;-0.100;2022-11-14T01:51:37;100552.74;;;10.68;61.35
61761;BME280;47664;51.660;-0.100;2022-11-14T01:54:16;100547.16;;;10.48;61.48
61761;BME280;47664;51.660;-0.100;2022-11-14T01:56:53;100542.23;;;10.61;61.03
61761;BME280;47664;51.660;-0.100;2022-11-14T01:59:29;100539.61;;;10.43;61.54
61761;BME280;47664;51.660;-0.100;2022-11-14T02:02:09;100543.50;;;10.61;61.46
61761;BME280;47664;51.660;-0.100;2022-11-14T02:04:41;100546.47;;;10.64;61.90
61761;BME280;47664;51.660;-0.100;2022-11-14T02:07:15;100543.57;;;10.03;64.36
61761;BME280;47664;51.660;-0.100;2022-11-14T02:09:50;100544.12;;;9.93;65.61
61761;BME280;47664;51.660;-0.100;2022-11-14T02:12:22;100541.73;;;10.08;65.67
61761;BME280;47664;51.660;-0.100;2022-11-14T02:14:56;100534.63;;;10.11;65.77
61761;BME280;47664;51.660;-0.100;2022-11-14T02:17:30;100533.61;;;9.90;66.06
61761;BME280;47664;51.660;-0.100;2022-11-14T02:20:05;100534.24;;;9.82;66.61
61761;BME280;47664;51.660;-0.100;2022-11-14T02:22:38;100529.20;;;10.02;66.28
61761;BME280;47664;51.660;-0.100;2022-11-14T02:25:12;100528.94;;;9.69;66.57
61761;BME280;47664;51.660;-0.100;2022-11-14T02:27:46;100523.40;;;10.10;66.54
61761;BME280;47664;51.660;-0.100;2022-11-14T02:30:21;100523.69;;;10.01;66.00
61761;BME280;47664;51.660;-0.100;2022-11-14T02:32:54;100522.22;;;10.38;64.99
61761;BME280;47664;51.660;-0.100;2022-11-14T02:35:26;100521.11;;;10.19;65.18
61761;BME280;47664;51.660;-0.100;2022-11-14T02:37:58;100520.15;;;10.40;64.80
61761;BME280;47664;51.660;-0.100;2022-11-14T02:40:30;100519.58;;;10.27;64.93
61761;BME280;47664;51.660;-0.100;2022-11-14T02:43:02;100517.78;;;10.82;64.93
61761;BME280;47664;51.660;-0.100;2022-11-14T02:45:34;100514.90;;;10.21;65.71
61761;BME280;47664;51.660;-0.100;2022-11-14T02:48:07;100511.05;;;10.47;65.27
61761;BME280;47664;51.660;-0.100;2022-11-14T02:50:38;100503.52;;;10.29;64.88
61761;BME280;47664;51.660;-0.100;2022-11-14T02:53:11;100500.39;;;10.49;65.15
61761;BME280;47664;51.660;-0.100;2022-11-14T02:55:43;100502.25;;;10.25;64.90
61761;BME280;47664;51.660;-0.100;2022-11-14T02:58:15;100499.10;;;10.94;63.50
61761;BME280;47664;51.660;-0.100;2022-11-14T03:00:47;100501.38;;;10.77;63.35
61761;BME280;47664;51.660;-0.100;2022-11-14T03:03:19;100497.55;;;10.86;63.05
61761;BME280;47664;51.660;-0.100;2022-11-14T03:05:51;100489.69;;;10.84;62.70
61761;BME280;47664;51.660;-0.100;2022-11-14T03:08:23;100483.67;;;10.05;64.92
61761;BME280;47664;51.660;-0.100;2022-11-14T03:11:02;100482.61;;;9.69;66.25
61761;BME280;47664;51.660;-0.100;2022-11-14T03:13:34;100488.42;;;10.45;64.52
61761;BME280;47664;51.660;-0.100;2022-11-14T03:16:05;100492.47;;;10.50;64.12
61761;BME280;47664;51.660;-0.100;2022-11-14T03:18:37;100495.01;;;10.40;64.26
61761;BME280;47664;51.660;-0.100;2022-11-14T03:21:11;100490.13;;;10.36;63.59
61761;BME280;47664;51.660;-0.100;2022-11-14T03:23:43;100482.00;;;9.83;64.95
61761;BME280;47664;51.660;-0.100;2022-11-14T03:26:16;100473.49;;;10.16;65.39
61761;BME280;47664;51.660;-0.100;2022-11-14T03:28:48;100469.10;;;9.59;66.12
61761;BME280;47664;51.660;-0.100;2022-11-14T03:31:20;100471.71;;;9.84;65.88
61761;BME280;47664;51.660;-0.100;2022-11-14T03:33:52;100471.72;;;10.35;64.89
61761;BME280;47664;51.660;-0.100;2022-11-14T03:36:24;100467.79;;;10.16;64.74
61761;BME280;47664;51.660;-0.100;2022-11-14T03:38:56;100466.09;;;10.55;64.59
61761;BME280;47664;51.660;-0.100;2022-11-14T03:41:29;100463.24;;;10.36;64.41
61761;BME280;47664;51.660;-0.100;2022-11-14T03:44:00;100463.02;;;10.83;63.94
61761;BME280;47664;51.660;-0.100;2022-11-14T03:46:32;100461.57;;;10.89;63.58
61761;BME280;47664;51.660;-0.100;2022-11-14T03:49:04;100461.16;;;10.82;64.32
61761;BME280;47664;51.660;-0.100;2022-11-14T03:51:36;100462.92;;;10.75;65.17
61761;BME280;47664;51.660;-0.100;2022-11-14T03:54:09;100467.26;;;10.40;66.90
61761;BME280;47664;51.660;-0.100;2022-11-14T03:56:41;100469.42;;;10.13;66.93
61761;BME280;47664;51.660;-0.100;2022-11-14T03:59:14;100467.52;;;10.44;66.81
61761;BME280;47664;51.660;-0.100;2022-11-14T04:01:46;100465.66;;;10.58;65.96
61761;BME280;47664;51.660;-0.100;2022-11-14T04:04:19;100459.75;;;10.11;66.79
61761;BME280;47664;51.660;-0.100;2022-11-14T04:06:51;100456.13;;;9.78;67.07
61761;BME280;47664;51.660;-0.100;2022-11-14T04:09:23;100450.21;;;10.11;67.07
61761;BME280;47664;51.660;-0.100;2022-11-14T04:11:55;100455.31;;;10.04;67.01
61761;BME280;47664;51.660;-0.100;2022-11-14T04:14:27;100450.92;;;10.21;67.17
61761;BME280;47664;51.660;-0.100;2022-11-14T04:16:59;100447.44;;;10.03;66.79
61761;BME280;47664;51.660;-0.100;2022-11-14T04:19:31;100447.99;;;10.87;66.02
61761;BME280;47664;51.660;-0.100;2022-11-14T04:22:04;100453.30;;;10.52;66.01
61761;BME280;47664;51.660;-0.100;2022-11-14T04:24:36;100445.75;;;10.38;66.37
61761;BME280;47664;51.660;-0.100;2022-11-14T04:27:08;100443.67;;;10.31;66.39
61761;BME280;47664;51.660;-0.100;2022-11-14T04:29:40;100442.87;;;10.28;66.32
61761;BME280;47664;51.660;-0.100;2022-11-14T04:32:12;100442.30;;;10.49;66.23
61761;BME280;47664;51.660;-0.100;2022-11-14T04:34:45;100435.69;;;10.11;66.97
61761;BME280;47664;51.660;-0.100;2022-11-14T04:37:17;100431.41;;;10.29;66.96
61761;BME280;47664;51.660;-0.100;2022-11-14T04:39:49;100430.10;;;10.40;66.99
61761;BME280;47664;51.660;-0.100;2022-11-14T04:42:21;100429.39;;;10.27;66.52
61761;BME280;47664;51.660;-0.100;2022-11-14T04:44:54;100424.01;;;10.33;66.06
61761;BME280;47664;51.660;-0.100;2022-11-14T04:47:26;100420.44;;;10.05;66.53
61761;BME280;47664;51.660;-0.100;2022-11-14T04:49:58;100416.85;;;10.29;66.69
61761;BME280;47664;51.660;-0.100;2022-11-14T04:52:29;100416.37;;;10.30;66.59
61761;BME280;47664;51.660;-0.100;2022-11-14T04:55:01;100408.01;;;10.29;66.13
61761;BME280;47664;51.660;-0.100;2022-11-14T04:57:33;100408.75;;;10.48;65.79
61761;BME280;47664;51.660;-0.100;2022-11-14T05:00:06;100407.98;;;10.60;65.56
61761;BME280;47664;51.660;-0.100;2022-11-14T05:02:39;100408.48;;;10.91;65.17
61761;BME280;47664;51.660;-0.100;2022-11-14T05:05:11;100411.34;;;10.78;64.86
61761;BME280;47664;51.660;-0.100;2022-11-14T05:07:43;100410.54;;;10.65;65.44
61761;BME280;47664;51.660;-0.100;2022-11-14T05:10:15;100408.02;;;10.24;66.64
61761;BME280;47664;51.660;-0.100;2022-11-14T05:12:48;100405.66;;;10.46;66.70
61761;BME280;47664;51.660;-0.100;2022-11-14T05:15:23;100401.51;;;10.57;66.85
61761;BME280;47664;51.660;-0.100;2022-11-14T05:17:55;100393.04;;;10.77;66.51
61761;BME280;47664;51.660;-0.100;2022-11-14T05:20:28;100396.32;;;10.12;67.17
61761;BME280;47664;51.660;-0.100;2022-11-14T05:23:00;100392.05;;;10.05;68.75
61761;BME280;47664;51.660;-0.100;2022-11-14T05:25:32;100381.82;;;9.84;68.89
61761;BME280;47664;51.660;-0.100;2022-11-14T05:28:04;100381.11;;;10.04;69.19
61761;BME280;47664;51.660;-0.100;2022-11-14T05:31:21;100383.09;;;10.43;69.30
61761;BME280;47664;51.660;-0.100;2022-11-14T05:33:53;100382.73;;;9.74;69.90
61761;BME280;47664;51.660;-0.100;2022-11-14T05:36:26;100392.81;;;9.69;70.43
61761;BME280;47664;51.660;-0.100;2022-11-14T05:38:58;100387.87;;;9.68;70.38
61761;BME280;47664;51.660;-0.100;2022-11-14T05:41:30;100387.35;;;9.92;70.00
61761;BME280;47664;51.660;-0.100;2022-11-14T05:44:03;100386.16;;;10.01;69.56
61761;BME280;47664;51.660;-0.100;2022-11-14T05:46:35;100380.95;;;10.19;68.64
61761;BME280;47664;51.660;-0.100;2022-11-14T05:49:07;100378.14;;;10.07;68.24
61761;BME280;47664;51.660;-0.100;2022-11-14T05:51:39;100377.28;;;9.96;68.37
61761;BME280;47664;51.660;-0.100;2022-11-14T05:54:12;100374.69;;;10.47;68.37
61761;BME280;47664;51.660;-0.100;2022-11-14T05:56:44;100369.57;;;10.14;68.88
61761;BME280;47664;51.660;-0.100;2022-11-14T05:59:16;100363.56;;;9.95;69.29
61761;BME280;47664;51.660;-0.100;2022-11-14T06:01:49;100367.38;;;9.86;69.43
61761;BME280;47664;51.660;-0.100;2022-11-14T06:04:21;100374.23;;;10.15;68.73
61761;BME280;47664;51.660;-0.100;2022-11-14T06:06:53;100380.96;;;10.48;68.30
61761;BME280;47664;51.660;-0.100;2022-11-14T06:09:25;100375.00;;;10.31;67.90
61761;BME280;47664;51.660;-0.100;2022-11-14T06:11:56;100369.93;;;10.69;66.80
61761;BME280;47664;51.660;-0.100;2022-11-14T06:14:28;100372.16;;;10.65;66.81
61761;BME280;47664;51.660;-0.100;2022-11-14T06:17:01;100364.75;;;10.67;66.53
61761;BME280;47664;51.660;-0.100;2022-11-14T06:19:33;100358.45;;;10.57;66.64
61761;BME280;47664;51.660;-0.100;2022-11-14T06:22:06;100358.13;;;10.53;66.57
61761;BME280;47664;51.660;-0.100;2022-11-14T06:24:38;100351.18;;;10.73;66.79
61761;BME280;47664;51.660;-0.100;2022-11-14T06:27:10;100347.61;;;10.50;66.85
61761;BME280;47664;51.660;-0.100;2022-11-14T06:29:42;100345.73;;;10.69;66.66
61761;BME280;47664;51.660;-0.100;2022-11-14T06:32:14;100345.01;;;10.76;66.29
61761;BME280;47664;51.660;-0.100;2022-11-14T06:34:47;100339.25;;;10.90;65.84
61761;BME280;47664;51.660;-0.100;2022-11-14T06:37:19;100344.05;;;11.09;65.61
61761;BME280;47664;51.660;-0.100;2022-11-14T06:39:51;100347.41;;;11.19;65.44
61761;BME280;47664;51.660;-0.100;2022-11-14T06:42:24;100350.95;;;11.13;65.33
61761;BME280;47664;51.660;-0.100;2022-11-14T06:44:56;100355.40;;;11.18;65.18
61761;BME280;47664;51.660;-0.100;2022-11-14T06:47:28;100357.32;;;10.80;65.32
61761;BME280;47664;51.660;-0.100;2022-11-14T06:50:00;100356.30;;;11.09;65.37
61761;BME280;47664;51.660;-0.100;2022-11-14T06:52:32;100356.49;;;10.96;65.04
61761;BME280;47664;51.660;-0.100;2022-11-14T06:55:05;100349.22;;;10.87;65.28
61761;BME280;47664;51.660;-0.100;2022-11-14T06:57:37;100352.76;;;10.90;65.60
61761;BME280;47664;51.660;-0.100;2022-11-14T07:00:10;100349.47;;;10.91;65.77
61761;BME280;47664;51.660;-0.100;2022-11-14T07:02:44;100354.44;;;10.92;65.96
61761;BME280;47664;51.660;-0.100;2022-11-14T07:05:16;100347.66;;;10.89;65.47
61761;BME280;47664;51.660;-0.100;2022-11-14T07:07:48;100348.07;;;10.98;65.57
61761;BME280;47664;51.660;-0.100;2022-11-14T07:10:20;100350.08;;;10.76;66.13
61761;BME280;47664;51.660;-0.100;2022-11-14T07:12:52;100345.13;;;10.49;66.65
61761;BME280;47664;51.660;-0.100;2022-11-14T07:15:25;100342.60;;;10.87;66.48
61761;BME280;47664;51.660;-0.100;2022-11-14T07:17:57;100351.54;;;10.34;67.28
61761;BME280;47664;51.660;-0.100;2022-11-14T07:20:29;100348.01;;;10.36;67.12
61761;BME280;47664;51.660;-0.100;2022-11-14T07:23:01;100343.94;;;10.38;67.37
61761;BME280;47664;51.660;-0.100;2022-11-14T07:25:33;100343.81;;;10.35;67.70
61761;BME280;47664;51.660;-0.100;2022-11-14T07:28:05;100342.38;;;10.41;67.73
61761;BME280;47664;51.660;-0.100;2022-11-14T07:30:38;100341.12;;;10.22;68.36
61761;BME280;47664;51.660;-0.100;2022-11-14T07:33:10;100336.91;;;10.12;67.90
61761;BME280;47664;51.660;-0.100;2022-11-14T07:35:43;100335.82;;;10.51;67.55
61761;BME280;47664;51.660;-0.100;2022-11-14T07:38:16;100332.39;;;10.13;68.09
61761;BME280;47664;51.660;-0.100;2022-11-14T07:40:55;100333.14;;;10.21;68.82
61761;BME280;47664;51.660;-0.100;2022-11-14T07:43:28;100332.67;;;10.31;68.27
61761;BME280;47664;51.660;-0.100;2022-11-14T07:45:58;100337.12;;;9.89;68.68
61761;BME280;47664;51.660;-0.100;2022-11-14T07:48:32;100339.39;;;9.87;68.93
61761;BME280;47664;51.660;-0.100;2022-11-14T07:51:06;100339.08;;;10.02;68.62
61761;BME280;47664;51.660;-0.100;2022-11-14T07:53:38;100331.26;;;9.89;69.00
61761;BME280;47664;51.660;-0.100;2022-11-14T07:56:11;100326.11;;;10.16;68.68
61761;BME280;47664;51.660;-0.100;2022-11-14T07:58:44;100330.20;;;9.99;68.39
61761;BME280;47664;51.660;-0.100;2022-11-14T08:01:17;100332.19;;;10.07;68.87
61761;BME280;47664;51.660;-0.100;2022-11-14T08:03:49;100326.74;;;10.37;68.05
61761;BME280;47664;51.660;-0.100;2022-11-14T08:06:21;100320.04;;;10.30;67.65
61761;BME280;47664;51.660;-0.100;2022-11-14T08:08:54;100321.98;;;10.33;68.30
61761;BME280;47664;51.660;-0.100;2022-11-14T08:11:26;100322.77;;;10.23;68.46
61761;BME280;47664;51.660;-0.100;2022-11-14T08:13:59;100324.49;;;10.16;67.72
61761;BME280;47664;51.660;-0.100;2022-11-14T08:16:31;100323.20;;;10.51;67.82
61761;BME280;47664;51.660;-0.100;2022-11-14T08:19:03;100329.21;;;10.39;67.74
61761;BME280;47664;51.660;-0.100;2022-11-14T08:21:36;100322.47;;;10.54;67.65
61761;BME280;47664;51.660;-0.100;2022-11-14T08:24:08;100320.72;;;10.53;67.57
61761;BME280;47664;51.660;-0.100;2022-11-14T08:26:40;100327.80;;;10.71;67.65
61761;BME280;47664;51.660;-0.100;2022-11-14T08:29:12;100323.69;;;11.05;66.88
61761;BME280;47664;51.660;-0.100;2022-11-14T08:31:44;100321.94;;;10.63;66.41
61761;BME280;47664;51.660;-0.100;2022-11-14T08:34:17;100326.04;;;10.90;66.86
61761;BME280;47664;51.660;-0.100;2022-11-14T08:36:49;100327.79;;;10.63;67.16
61761;BME280;47664;51.660;-0.100;2022-11-14T08:39:21;100334.54;;;10.91;66.94
61761;BME280;47664;51.660;-0.100;2022-11-14T08:41:53;100331.43;;;10.90;66.78
61761;BME280;47664;51.660;-0.100;2022-11-14T08:44:26;100327.06;;;11.11;66.32
61761;BME280;47664;51.660;-0.100;2022-11-14T08:46:58;100315.52;;;11.00;66.19
61761;BME280;47664;51.660;-0.100;2022-11-14T08:49:30;100319.46;;;10.76;66.84
61761;BME280;47664;51.660;-0.100;2022-11-14T08:52:02;100324.43;;;10.89;67.21
61761;BME280;47664;51.660;-0.100;2022-11-14T08:54:34;100329.59;;;10.76;67.46
61761;BME280;47664;51.660;-0.100;2022-11-14T08:57:06;100331.48;;;11.02;67.13
61761;BME280;47664;51.660;-0.100;2022-11-14T08:59:39;100331.01;;;10.91;67.19
61761;BME280;47664;51.660;-0.100;2022-11-14T09:02:11;100328.21;;;10.96;66.57
61761;BME280;47664;51.660;-0.100;2022-11-14T09:04:44;100328.24;;;11.18;66.42
61761;BME280;47664;51.660;-0.100;2022-11-14T09:07:16;100328.94;;;10.63;66.62
61761;BME280;47664;51.660;-0.100;2022-11-14T09:09:48;100328.39;;;10.93;66.93
61761;BME280;47664;51.660;-0.100;2022-11-14T09:12:21;100320.51;;;10.57;66.93
61761;BME280;47664;51.660;-0.100;2022-11-14T09:14:53;100318.89;;;10.78;67.28
61761;BME280;47664;51.660;-0.100;2022-11-14T09:17:25;100312.61;;;10.71;67.38
61761;BME280;47664;51.660;-0.100;2022-11-14T09:19:58;100317.81;;;10.60;67.20
61761;BME280;47664;51.660;-0.100;2022-11-14T09:22:30;100314.63;;;11.03;67.19
61761;BME280;47664;51.660;-0.100;2022-11-14T09:25:02;100317.86;;;10.81;67.31
61761;BME280;47664;51.660;-0.100;2022-11-14T09:27:35;100308.54;;;10.98;67.01
61761;BME280;47664;51.660;-0.100;2022-11-14T09:30:07;100298.01;;;10.60;67.51
61761;BME280;47664;51.660;-0.100;2022-11-14T09:32:39;100292.88;;;10.68;67.65
61761;BME280;47664;51.660;-0.100;2022-11-14T09:35:11;100290.54;;;10.76;68.18
61761;BME280;47664;51.660;-0.100;2022-11-14T09:37:44;100282.12;;;10.91;68.32
61761;BME280;47664;51.660;-0.100;2022-11-14T09:40:17;100274.03;;;10.75;67.78
61761;BME280;47664;51.660;-0.100;2022-11-14T09:42:58;100276.81;;;10.80;67.86
61761;BME280;47664;51.660;-0.100;2022-11-14T09:45:33;100274.10;;;10.74;67.96
61761;BME280;47664;51.660;-0.100;2022-11-14T09:48:05;100278.53;;;10.93;67.82
61761;BME280;47664;51.660;-0.100;2022-11-14T09:50:36;100290.07;;;11.09;67.91
61761;BME280;47664;51.660;-0.100;2022-11-14T09:53:10;100290.31;;;11.05;67.64
61761;BME280;47664;51.660;-0.100;2022-11-14T09:55:45;100282.93;;;10.89;68.21
61761;BME280;47664;51.660;-0.100;2022-11-14T09:58:17;100282.64;;;11.14;68.10
61761;BME280;47664;51.660;-0.100;2022-11-14T10:00:50;100279.40;;;10.97;67.19
61761;BME280;47664;51.660;-0.100;2022-11-14T10:03:24;100280.04;;;11.18;67.25
61761;BME280;47664;51.660;-0.100;2022-11-14T10:06:14;100278.12;;;11.54;66.79
61761;BME280;47664;51.660;-0.100;2022-11-14T10:08:49;100281.06;;;11.41;66.85
61761;BME280;47664;51.660;-0.100;2022-11-14T10:11:22;100282.11;;;11.05;66.99
61761;BME280;47664;51.660;-0.100;2022-11-14T10:14:07;100275.38;;;11.15;68.11
61761;BME280;47664;51.660;-0.100;2022-11-14T10:16:49;100271.42;;;10.90;67.80
61761;BME280;47664;51.660;-0.100;2022-11-14T10:19:25;100270.62;;;11.52;67.14
61761;BME280;47664;51.660;-0.100;2022-11-14T10:22:04;100263.37;;;11.13;67.81
61761;BME280;47664;51.660;-0.100;2022-11-14T10:24:49;100258.61;;;11.09;67.94
61761;BME280;47664;51.660;-0.100;2022-11-14T10:27:26;100257.08;;;11.49;68.23
61761;BME280;47664;51.660;-0.100;2022-11-14T10:30:04;100268.16;;;11.23;67.75
61761;BME280;47664;51.660;-0.100;2022-11-14T10:32:45;100266.81;;;11.41;67.85
61761;BME280;47664;51.660;-0.100;2022-11-14T10:35:26;100270.71;;;11.37;68.86
61761;BME280;47664;51.660;-0.100;2022-11-14T10:37:59;100267.18;;;11.45;68.81
61761;BME280;47664;51.660;-0.100;2022-11-14T10:40:34;100262.93;;;11.29;68.22
61761;BME280;47664;51.660;-0.100;2022-11-14T10:43:17;100261.23;;;11.47;67.87
61761;BME280;47664;51.660;-0.100;2022-11-14T10:45:52;100261.75;;;11.63;67.89
61761;BME280;47664;51.660;-0.100;2022-11-14T10:48:28;100253.99;;;11.71;67.49
61761;BME280;47664;51.660;-0.100;2022-11-14T10:51:02;100254.76;;;11.64;67.09
61761;BME280;47664;51.660;-0.100;2022-11-14T10:53:42;100247.83;;;11.91;67.08
61761;BME280;47664;51.660;-0.100;2022-11-14T10:56:18;100244.12;;;12.03;66.77
61761;BME280;47664;51.660;-0.100;2022-11-14T10:58:49;100243.58;;;12.14;66.83
61761;BME280;47664;51.660;-0.100;2022-11-14T11:01:34;100242.93;;;11.87;66.89
61761;BME280;47664;51.660;-0.100;2022-11-14T11:04:19;100250.82;;;11.49;67.35
61761;BME280;47664;51.660;-0.100;2022-11-14T11:06:53;100246.40;;;11.82;67.66
61761;BME280;47664;51.660;-0.100;2022-11-14T11:09:27;100251.21;;;11.57;67.51
61761;BME280;47664;51.660;-0.100;2022-11-14T11:12:01;100253.10;;;11.84;67.92
61761;BME280;47664;51.660;-0.100;2022-11-14T11:14:34;100249.96;;;11.55;68.16
61761;BME280;47664;51.660;-0.100;2022-11-14T11:17:17;100248.00;;;11.60;68.16
61761;BME280;47664;51.660;-0.100;2022-11-14T11:19:50;100244.47;;;11.90;68.56
61761;BME280;47664;51.660;-0.100;2022-11-14T11:22:34;100241.21;;;11.54;68.20
61761;BME280;47664;51.660;-0.100;2022-11-14T11:25:22;100237.84;;;11.58;68.02
61761;BME280;47664;51.660;-0.100;2022-11-14T11:28:04;100231.26;;;11.77;67.72
61761;BME280;47664;51.660;-0.100;2022-11-14T11:30:37;100228.24;;;11.88;67.53
61761;BME280;47664;51.660;-0.100;2022-11-14T11:33:22;100228.42;;;11.90;67.75
61761;BME280;47664;51.660;-0.100;2022-11-14T11:35:59;100224.12;;;12.24;66.81
61761;BME280;47664;51.660;-0.100;2022-11-14T11:38:33;100214.71;;;12.33;66.46
61761;BME280;47664;51.660;-0.100;2022-11-14T11:41:12;100211.86;;;12.11;66.55
61761;BME280;47664;51.660;-0.100;2022-11-14T11:43:53;100201.28;;;12.14;66.73
61761;BME280;47664;51.660;-0.100;2022-11-14T11:46:28;100195.91;;;11.82;66.93
61761;BME280;47664;51.660;-0.100;2022-11-14T11:51:51;100195.32;;;12.02;66.18
61761;BME280;47664;51.660;-0.100;2022-11-14T11:54:28;100191.35;;;12.36;66.57
61761;BME280;47664;51.660;-0.100;2022-11-14T11:57:08;100186.18;;;12.34;66.63
61761;BME280;47664;51.660;-0.100;2022-11-14T11:59:41;100182.71;;;12.09;67.25
61761;BME280;47664;51.660;-0.100;2022-11-14T12:02:20;100181.32;;;11.63;67.82
61761;BME280;47664;51.660;-0.100;2022-11-14T12:04:55;100176.83;;;11.75;68.15
61761;BME280;47664;51.660;-0.100;2022-11-14T12:07:31;100166.51;;;11.99;67.75
61761;BME280;47664;51.660;-0.100;2022-11-14T12:10:10;100156.84;;;11.61;68.64
61761;BME280;47664;51.660;-0.100;2022-11-14T12:12:57;100146.86;;;11.80;68.40
61761;BME280;47664;51.660;-0.100;2022-11-14T12:15:39;100135.81;;;11.73;68.92
61761;BME280;47664;51.660;-0.100;2022-11-14T12:18:38;100134.57;;;12.03;68.83
61761;BME280;47664;51.660;-0.100;2022-11-14T12:21:13;100149.14;;;11.50;68.69
61761;BME280;47664;51.660;-0.100;2022-11-14T12:24:21;100165.52;;;11.54;69.05
61761;BME280;47664;51.660;-0.100;2022-11-14T12:27:09;100173.62;;;11.67;68.66
61761;BME280;47664;51.660;-0.100;2022-11-14T12:29:54;100170.26;;;11.77;68.64
61761;BME280;47664;51.660;-0.100;2022-11-14T12:32:31;100163.19;;;11.93;67.82
61761;BME280;47664;51.660;-0.100;2022-11-14T12:35:03;100155.03;;;11.82;67.72
61761;BME280;47664;51.660;-0.100;2022-11-14T12:37:42;100161.36;;;12.11;66.88
61761;BME280;47664;51.660;-0.100;2022-11-14T12:40:25;100154.79;;;12.35;67.15
61761;BME280;47664;51.660;-0.100;2022-11-14T12:42:59;100155.53;;;12.18;66.94
61761;BME280;47664;51.660;-0.100;2022-11-14T12:46:01;100149.49;;;11.81;67.19
61761;BME280;47664;51.660;-0.100;2022-11-14T12:48:35;100153.91;;;12.15;67.14
61761;BME280;47664;51.660;-0.100;2022-11-14T12:52:37;100149.22;;;12.04;67.36
61761;BME280;47664;51.660;-0.100;2022-11-14T12:55:52;100145.84;;;11.86;67.92
61761;BME280;47664;51.660;-0.100;2022-11-14T12:58:34;100145.56;;;12.09;67.63
61761;BME280;47664;51.660;-0.100;2022-11-14T13:01:19;100140.73;;;12.11;67.98
61761;BME280;47664;51.660;-0.100;2022-11-14T13:04:02;100136.26;;;11.98;68.22
61761;BME280;47664;51.660;-0.100;2022-11-14T13:06:43;100138.77;;;12.19;68.27
61761;BME280;47664;51.660;-0.100;2022-11-14T13:09:52;100139.36;;;12.34;67.75
61761;BME280;47664;51.660;-0.100;2022-11-14T13:12:26;100136.40;;;12.36;67.48
61761;BME280;47664;51.660;-0.100;2022-11-14T13:15:09;100131.19;;;12.32;67.45
61761;BME280;47664;51.660;-0.100;2022-11-14T13:17:56;100132.22;;;11.98;67.77
61761;BME280;47664;51.660;-0.100;2022-11-14T13:20:35;100121.48;;;12.16;67.79
61761;BME280;47664;51.660;-0.100;2022-11-14T13:23:31;100115.66;;;12.21;67.93